Weather at Zhubi Jiao (Subi Reef) Helipad

Public forecast

Using degrees Celsius for public forecast. Weather courtesy of forecast.io.

Closest aviation weather report (METAR) to Zhubi Jiao (Subi Reef) Helipad

Closest report is Puerto Princesa International Airport / PAF Antonio Bautista Air Base, 286.2 nm (530.1 km) ESE.

2024/07/21 04:00 (retrieved 25 minutes ago)

RPVP 210400Z 18010KT 9999 FEW019 SCT240 30/26 Q1009 RMK A2980

Closest aviation forecast (TAF) to Zhubi Jiao (Subi Reef) Helipad

Forecast is more than 12 hours old.

Closest forecast is Car Nicobar Air Force Base, 1,260.1 nm (2,333.7 km) W.

2024/07/20 12:00 (retrieved 16 hours ago)

TAF VOCX 200930Z 2012/2024 23010KT 6000 SCT015 BKN090 TEMPO 2016/2018 24010G20KT 5000 RA SCT015 FEW025TCU BKN090